sensor_id;sensor_type;location;lat;lon;timestamp;temperature;humidity
9167;DHT22;4618;48.818;9.088;2022-08-02T00:01:43;18.50;90.40
9167;DHT22;4618;48.818;9.088;2022-08-02T00:04:10;18.60;1.00
9167;DHT22;4618;48.818;9.088;2022-08-02T00:06:36;18.60;1.00
9167;DHT22;4618;48.818;9.088;2022-08-02T00:09:03;18.50;27.20
9167;DHT22;4618;48.818;9.088;2022-08-02T00:11:29;18.50;99.90
9167;DHT22;4618;48.818;9.088;2022-08-02T00:13:55;18.60;94.70
9167;DHT22;4618;48.818;9.088;2022-08-02T00:16:20;18.60;1.00
9167;DHT22;4618;48.818;9.088;2022-08-02T00:18:46;18.70;1.00
9167;DHT22;4618;48.818;9.088;2022-08-02T00:21:11;18.80;1.00
9167;DHT22;4618;48.818;9.088;2022-08-02T00:23:37;18.80;1.00
9167;DHT22;4618;48.818;9.088;2022-08-02T00:26:02;18.70;1.00
9167;DHT22;4618;48.818;9.088;2022-08-02T00:28:28;18.70;99.90
9167;DHT22;4618;48.818;9.088;2022-08-02T00:30:55;18.70;99.90
9167;DHT22;4618;48.818;9.088;2022-08-02T00:33:20;18.70;99.90
9167;DHT22;4618;48.818;9.088;2022-08-02T00:35:46;18.70;99.90
9167;DHT22;4618;48.818;9.088;2022-08-02T00:38:12;18.70;99.90
9167;DHT22;4618;48.818;9.088;2022-08-02T00:40:38;18.70;99.90
9167;DHT22;4618;48.818;9.088;2022-08-02T00:43:06;18.70;99.90
9167;DHT22;4618;48.818;9.088;2022-08-02T00:45:36;18.60;1.00
9167;DHT22;4618;48.818;9.088;2022-08-02T00:48:03;18.50;1.00
9167;DHT22;4618;48.818;9.088;2022-08-02T00:50:30;18.50;1.00
9167;DHT22;4618;48.818;9.088;2022-08-02T00:52:56;18.50;1.00
9167;DHT22;4618;48.818;9.088;2022-08-02T00:55:22;18.50;1.00
9167;DHT22;4618;48.818;9.088;2022-08-02T00:57:48;18.50;1.00
9167;DHT22;4618;48.818;9.088;2022-08-02T01:00:14;18.40;1.00
9167;DHT22;4618;48.818;9.088;2022-08-02T01:02:40;18.50;1.00
9167;DHT22;4618;48.818;9.088;2022-08-02T01:05:06;18.40;1.00
9167;DHT22;4618;48.818;9.088;2022-08-02T01:07:32;18.40;1.00
9167;DHT22;4618;48.818;9.088;2022-08-02T01:09:58;18.40;1.00
9167;DHT22;4618;48.818;9.088;2022-08-02T01:12:25;18.40;1.00
9167;DHT22;4618;48.818;9.088;2022-08-02T01:14:53;18.40;1.00
9167;DHT22;4618;48.818;9.088;2022-08-02T01:20:24;18.40;1.00
9167;DHT22;4618;48.818;9.088;2022-08-02T01:29:03;18.40;1.00
9167;DHT22;4618;48.818;9.088;2022-08-02T01:31:34;18.40;99.90
9167;DHT22;4618;48.818;9.088;2022-08-02T01:36:47;18.40;99.90
9167;DHT22;4618;48.818;9.088;2022-08-02T01:39:17;18.30;99.90
9167;DHT22;4618;48.818;9.088;2022-08-02T01:41:44;18.40;99.90
9167;DHT22;4618;48.818;9.088;2022-08-02T01:44:12;18.40;99.90
9167;DHT22;4618;48.818;9.088;2022-08-02T01:46:41;18.30;99.90
9167;DHT22;4618;48.818;9.088;2022-08-02T01:49:13;18.20;1.00
9167;DHT22;4618;48.818;9.088;2022-08-02T01:51:40;18.30;99.90
9167;DHT22;4618;48.818;9.088;2022-08-02T01:54:28;18.40;99.90
9167;DHT22;4618;48.818;9.088;2022-08-02T01:56:55;18.30;99.90
9167;DHT22;4618;48.818;9.088;2022-08-02T01:59:22;18.30;99.90
9167;DHT22;4618;48.818;9.088;2022-08-02T02:01:50;18.30;99.90
9167;DHT22;4618;48.818;9.088;2022-08-02T02:04:18;18.40;99.90
9167;DHT22;4618;48.818;9.088;2022-08-02T02:06:45;18.30;99.90
9167;DHT22;4618;48.818;9.088;2022-08-02T02:09:13;18.20;99.90
9167;DHT22;4618;48.818;9.088;2022-08-02T02:11:42;18.10;99.90
9167;DHT22;4618;48.818;9.088;2022-08-02T02:14:08;18.00;1.00
9167;DHT22;4618;48.818;9.088;2022-08-02T02:16:36;18.00;1.00
9167;DHT22;4618;48.818;9.088;2022-08-02T02:19:04;17.90;1.00
9167;DHT22;4618;48.818;9.088;2022-08-02T02:21:31;18.00;1.00
9167;DHT22;4618;48.818;9.088;2022-08-02T02:23:57;18.00;1.00
9167;DHT22;4618;48.818;9.088;2022-08-02T02:26:24;18.00;1.00
9167;DHT22;4618;48.818;9.088;2022-08-02T02:28:51;18.00;1.00
9167;DHT22;4618;48.818;9.088;2022-08-02T02:31:18;17.90;1.00
9167;DHT22;4618;48.818;9.088;2022-08-02T02:34:09;17.90;1.00
9167;DHT22;4618;48.818;9.088;2022-08-02T02:36:38;17.80;1.00
9167;DHT22;4618;48.818;9.088;2022-08-02T02:39:06;17.80;1.00
9167;DHT22;4618;48.818;9.088;2022-08-02T02:41:32;17.70;1.00
9167;DHT22;4618;48.818;9.088;2022-08-02T02:44:00;17.60;1.00
9167;DHT22;4618;48.818;9.088;2022-08-02T02:46:29;17.60;1.00
9167;DHT22;4618;48.818;9.088;2022-08-02T02:48:55;17.50;64.50
9167;DHT22;4618;48.818;9.088;2022-08-02T02:51:22;17.40;99.90
9167;DHT22;4618;48.818;9.088;2022-08-02T02:53:49;17.30;99.90
9167;DHT22;4618;48.818;9.088;2022-08-02T02:56:18;17.20;99.90
9167;DHT22;4618;48.818;9.088;2022-08-02T02:58:46;17.10;1.00
9167;DHT22;4618;48.818;9.088;2022-08-02T03:01:13;17.10;1.00
9167;DHT22;4618;48.818;9.088;2022-08-02T03:04:00;17.10;1.00
9167;DHT22;4618;48.818;9.088;2022-08-02T03:06:27;17.00;1.00
9167;DHT22;4618;48.818;9.088;2022-08-02T03:08:52;17.10;1.00
9167;DHT22;4618;48.818;9.088;2022-08-02T03:11:18;17.20;1.00
9167;DHT22;4618;48.818;9.088;2022-08-02T03:13:44;17.20;99.90
9167;DHT22;4618;48.818;9.088;2022-08-02T03:16:11;17.20;99.90
9167;DHT22;4618;48.818;9.088;2022-08-02T03:18:38;17.20;99.90
9167;DHT22;4618;48.818;9.088;2022-08-02T03:21:09;17.20;99.90
9167;DHT22;4618;48.818;9.088;2022-08-02T03:23:39;17.10;99.90
9167;DHT22;4618;48.818;9.088;2022-08-02T03:26:07;17.10;99.90
9167;DHT22;4618;48.818;9.088;2022-08-02T03:28:33;17.20;99.90
9167;DHT22;4618;48.818;9.088;2022-08-02T03:30:59;17.20;99.90
9167;DHT22;4618;48.818;9.088;2022-08-02T03:33:26;17.10;99.90
9167;DHT22;4618;48.818;9.088;2022-08-02T03:35:55;17.10;99.90
9167;DHT22;4618;48.818;9.088;2022-08-02T03:38:22;17.00;99.90
9167;DHT22;4618;48.818;9.088;2022-08-02T03:40:49;16.80;99.90
9167;DHT22;4618;48.818;9.088;2022-08-02T03:43:15;16.70;99.90
9167;DHT22;4618;48.818;9.088;2022-08-02T03:45:43;16.60;1.00
9167;DHT22;4618;48.818;9.088;2022-08-02T03:48:10;16.40;1.00
9167;DHT22;4618;48.818;9.088;2022-08-02T03:50:37;16.30;1.00
9167;DHT22;4618;48.818;9.088;2022-08-02T03:53:03;16.30;99.90
9167;DHT22;4618;48.818;9.088;2022-08-02T03:55:29;16.20;99.90
9167;DHT22;4618;48.818;9.088;2022-08-02T03:57:55;16.20;1.00
9167;DHT22;4618;48.818;9.088;2022-08-02T04:00:22;16.30;1.00
9167;DHT22;4618;48.818;9.088;2022-08-02T04:02:48;16.30;99.90
9167;DHT22;4618;48.818;9.088;2022-08-02T04:05:17;16.40;1.00
9167;DHT22;4618;48.818;9.088;2022-08-02T04:07:42;16.30;1.00
9167;DHT22;4618;48.818;9.088;2022-08-02T04:10:09;16.30;1.00
9167;DHT22;4618;48.818;9.088;2022-08-02T04:12:35;16.30;1.00
9167;DHT22;4618;48.818;9.088;2022-08-02T04:15:04;16.30;1.00
9167;DHT22;4618;48.818;9.088;2022-08-02T04:17:36;16.30;1.00
9167;DHT22;4618;48.818;9.088;2022-08-02T04:20:18;16.30;1.00
9167;DHT22;4618;48.818;9.088;2022-08-02T04:23:03;16.30;99.90
9167;DHT22;4618;48.818;9.088;2022-08-02T04:25:30;16.50;1.00
9167;DHT22;4618;48.818;9.088;2022-08-02T04:27:56;16.60;99.90
9167;DHT22;4618;48.818;9.088;2022-08-02T04:30:23;16.50;99.90
9167;DHT22;4618;48.818;9.088;2022-08-02T04:32:49;16.60;59.20
9167;DHT22;4618;48.818;9.088;2022-08-02T04:35:16;16.80;1.00
9167;DHT22;4618;48.818;9.088;2022-08-02T04:37:41;16.80;1.00
9167;DHT22;4618;48.818;9.088;2022-08-02T04:40:11;16.90;99.90
9167;DHT22;4618;48.818;9.088;2022-08-02T04:42:37;16.80;99.90
9167;DHT22;4618;48.818;9.088;2022-08-02T04:45:04;16.80;99.90
9167;DHT22;4618;48.818;9.088;2022-08-02T04:47:30;16.80;99.90
9167;DHT22;4618;48.818;9.088;2022-08-02T04:49:56;16.80;99.90
9167;DHT22;4618;48.818;9.088;2022-08-02T04:52:21;16.90;99.90
9167;DHT22;4618;48.818;9.088;2022-08-02T04:54:47;16.90;1.20
9167;DHT22;4618;48.818;9.088;2022-08-02T04:57:12;17.00;30.40
9167;DHT22;4618;48.818;9.088;2022-08-02T04:59:57;17.00;12.70
9167;DHT22;4618;48.818;9.088;2022-08-02T05:02:22;17.00;1.00
9167;DHT22;4618;48.818;9.088;2022-08-02T05:04:48;17.10;15.00
9167;DHT22;4618;48.818;9.088;2022-08-02T05:07:13;17.20;1.00
9167;DHT22;4618;48.818;9.088;2022-08-02T05:09:39;17.40;1.00
9167;DHT22;4618;48.818;9.088;2022-08-02T05:12:05;17.60;99.90
9167;DHT22;4618;48.818;9.088;2022-08-02T05:14:30;17.70;99.90
9167;DHT22;4618;48.818;9.088;2022-08-02T05:16:56;17.80;99.90
9167;DHT22;4618;48.818;9.088;2022-08-02T05:19:22;17.90;99.90
9167;DHT22;4618;48.818;9.088;2022-08-02T05:21:47;18.20;1.00
9167;DHT22;4618;48.818;9.088;2022-08-02T05:24:13;18.40;1.00
9167;DHT22;4618;48.818;9.088;2022-08-02T05:26:38;18.60;28.40
9167;DHT22;4618;48.818;9.088;2022-08-02T05:29:04;18.70;1.00
9167;DHT22;4618;48.818;9.088;2022-08-02T05:31:30;18.90;99.90
9167;DHT22;4618;48.818;9.088;2022-08-02T05:33:56;19.10;99.90
9167;DHT22;4618;48.818;9.088;2022-08-02T05:36:22;19.20;1.00
9167;DHT22;4618;48.818;9.088;2022-08-02T05:38:48;19.30;1.00
9167;DHT22;4618;48.818;9.088;2022-08-02T05:41:18;19.40;99.90
9167;DHT22;4618;48.818;9.088;2022-08-02T05:43:45;19.50;99.90
9167;DHT22;4618;48.818;9.088;2022-08-02T05:46:10;19.70;57.60
9167;DHT22;4618;48.818;9.088;2022-08-02T05:48:36;19.90;1.00
9167;DHT22;4618;48.818;9.088;2022-08-02T05:51:04;20.00;1.00
9167;DHT22;4618;48.818;9.088;2022-08-02T05:58:56;19.70;1.00
9167;DHT22;4618;48.818;9.088;2022-08-02T06:01:34;19.80;1.00
9167;DHT22;4618;48.818;9.088;2022-08-02T06:04:05;19.80;1.00
9167;DHT22;4618;48.818;9.088;2022-08-02T06:06:32;20.00;1.00
9167;DHT22;4618;48.818;9.088;2022-08-02T06:09:09;20.10;99.90
9167;DHT22;4618;48.818;9.088;2022-08-02T06:11:38;20.10;99.90
9167;DHT22;4618;48.818;9.088;2022-08-02T06:14:07;20.20;99.90
9167;DHT22;4618;48.818;9.088;2022-08-02T06:16:34;20.40;99.90
9167;DHT22;4618;48.818;9.088;2022-08-02T06:19:00;20.60;99.90
9167;DHT22;4618;48.818;9.088;2022-08-02T06:21:26;20.70;4.00
9167;DHT22;4618;48.818;9.088;2022-08-02T06:23:52;20.80;99.90
9167;DHT22;4618;48.818;9.088;2022-08-02T06:26:18;21.00;1.00
9167;DHT22;4618;48.818;9.088;2022-08-02T06:28:45;21.10;1.00
9167;DHT22;4618;48.818;9.088;2022-08-02T06:31:12;21.20;1.00
9167;DHT22;4618;48.818;9.088;2022-08-02T06:33:39;21.30;1.00
9167;DHT22;4618;48.818;9.088;2022-08-02T06:36:32;21.20;1.00
9167;DHT22;4618;48.818;9.088;2022-08-02T06:39:07;21.00;1.00
9167;DHT22;4618;48.818;9.088;2022-08-02T06:41:39;21.10;1.00
9167;DHT22;4618;48.818;9.088;2022-08-02T06:44:06;21.10;99.90
9167;DHT22;4618;48.818;9.088;2022-08-02T06:46:32;21.20;67.10
9167;DHT22;4618;48.818;9.088;2022-08-02T06:48:59;21.40;1.00
9167;DHT22;4618;48.818;9.088;2022-08-02T06:51:25;21.40;99.90
9167;DHT22;4618;48.818;9.088;2022-08-02T06:53:50;21.40;99.90
9167;DHT22;4618;48.818;9.088;2022-08-02T06:56:16;21.40;51.30
9167;DHT22;4618;48.818;9.088;2022-08-02T06:58:41;21.50;1.00
9167;DHT22;4618;48.818;9.088;2022-08-02T07:01:07;21.50;1.00
9167;DHT22;4618;48.818;9.088;2022-08-02T07:03:34;21.70;1.00
9167;DHT22;4618;48.818;9.088;2022-08-02T07:05:59;21.80;1.00
9167;DHT22;4618;48.818;9.088;2022-08-02T07:08:26;21.80;1.00
9167;DHT22;4618;48.818;9.088;2022-08-02T07:10:52;21.70;1.00
9167;DHT22;4618;48.818;9.088;2022-08-02T07:13:20;21.70;1.00
9167;DHT22;4618;48.818;9.088;2022-08-02T07:15:45;21.80;1.00
9167;DHT22;4618;48.818;9.088;2022-08-02T07:18:11;22.00;99.90
9167;DHT22;4618;48.818;9.088;2022-08-02T07:20:40;22.10;99.90
9167;DHT22;4618;48.818;9.088;2022-08-02T07:23:06;22.30;81.70
9167;DHT22;4618;48.818;9.088;2022-08-02T07:25:32;22.30;81.90
9167;DHT22;4618;48.818;9.088;2022-08-02T07:27:58;22.50;1.00
9167;DHT22;4618;48.818;9.088;2022-08-02T07:30:23;22.70;1.00
9167;DHT22;4618;48.818;9.088;2022-08-02T07:32:49;23.00;1.00
9167;DHT22;4618;48.818;9.088;2022-08-02T07:35:14;23.30;1.00
9167;DHT22;4618;48.818;9.088;2022-08-02T07:37:40;23.60;1.00
9167;DHT22;4618;48.818;9.088;2022-08-02T07:40:08;23.80;1.00
9167;DHT22;4618;48.818;9.088;2022-08-02T07:42:34;23.90;1.00
9167;DHT22;4618;48.818;9.088;2022-08-02T07:45:00;24.70;1.00
9167;DHT22;4618;48.818;9.088;2022-08-02T07:47:25;25.40;99.90
9167;DHT22;4618;48.818;9.088;2022-08-02T07:49:51;25.60;99.90
9167;DHT22;4618;48.818;9.088;2022-08-02T07:52:16;25.90;99.90
9167;DHT22;4618;48.818;9.088;2022-08-02T07:54:42;25.80;99.90
9167;DHT22;4618;48.818;9.088;2022-08-02T07:57:07;26.20;99.90
9167;DHT22;4618;48.818;9.088;2022-08-02T07:59:33;26.80;99.90
9167;DHT22;4618;48.818;9.088;2022-08-02T08:01:58;27.30;99.90
9167;DHT22;4618;48.818;9.088;2022-08-02T08:04:24;28.00;99.90
9167;DHT22;4618;48.818;9.088;2022-08-02T08:06:50;28.00;99.90
9167;DHT22;4618;48.818;9.088;2022-08-02T08:09:17;28.20;99.90
9167;DHT22;4618;48.818;9.088;2022-08-02T08:11:43;28.30;99.90
9167;DHT22;4618;48.818;9.088;2022-08-02T08:14:09;28.20;99.90
9167;DHT22;4618;48.818;9.088;2022-08-02T08:16:34;28.20;99.90
9167;DHT22;4618;48.818;9.088;2022-08-02T08:19:01;29.10;99.90
9167;DHT22;4618;48.818;9.088;2022-08-02T08:21:27;29.20;99.90
9167;DHT22;4618;48.818;9.088;2022-08-02T08:23:54;29.30;99.90
9167;DHT22;4618;48.818;9.088;2022-08-02T08:26:20;29.90;99.90
9167;DHT22;4618;48.818;9.088;2022-08-02T08:28:45;30.00;99.90
9167;DHT22;4618;48.818;9.088;2022-08-02T08:31:11;30.20;99.90
9167;DHT22;4618;48.818;9.088;2022-08-02T08:33:37;29.90;99.90
9167;DHT22;4618;48.818;9.088;2022-08-02T08:36:02;29.70;99.90
9167;DHT22;4618;48.818;9.088;2022-08-02T08:40:54;30.90;99.90
9167;DHT22;4618;48.818;9.088;2022-08-02T08:43:20;30.80;99.90
9167;DHT22;4618;48.818;9.088;2022-08-02T08:45:47;30.90;99.90
9167;DHT22;4618;48.818;9.088;2022-08-02T08:48:15;30.40;99.90
9167;DHT22;4618;48.818;9.088;2022-08-02T08:51:00;29.40;99.90
9167;DHT22;4618;48.818;9.088;2022-08-02T08:53:30;29.50;99.90
9167;DHT22;4618;48.818;9.088;2022-08-02T08:55:57;30.10;99.90
9167;DHT22;4618;48.818;9.088;2022-08-02T08:58:23;29.80;99.90
9167;DHT22;4618;48.818;9.088;2022-08-02T09:00:49;29.00;99.90
9167;DHT22;4618;48.818;9.088;2022-08-02T09:03:15;28.80;99.90
9167;DHT22;4618;48.818;9.088;2022-08-02T09:05:40;29.30;99.90
9167;DHT22;4618;48.818;9.088;2022-08-02T09:08:07;29.80;99.90
9167;DHT22;4618;48.818;9.088;2022-08-02T09:16:01;31.30;99.90
9167;DHT22;4618;48.818;9.088;2022-08-02T09:21:06;31.80;99.90
9167;DHT22;4618;48.818;9.088;2022-08-02T09:26:02;32.60;99.90
9167;DHT22;4618;48.818;9.088;2022-08-02T09:28:30;33.10;99.90
9167;DHT22;4618;48.818;9.088;2022-08-02T09:31:10;33.40;99.90
9167;DHT22;4618;48.818;9.088;2022-08-02T09:33:38;33.50;99.90
9167;DHT22;4618;48.818;9.088;2022-08-02T09:36:12;33.50;99.90
9167;DHT22;4618;48.818;9.088;2022-08-02T09:38:39;33.70;99.90
9167;DHT22;4618;48.818;9.088;2022-08-02T09:41:19;33.40;99.90
9167;DHT22;4618;48.818;9.088;2022-08-02T09:43:45;32.70;99.90
9167;DHT22;4618;48.818;9.088;2022-08-02T09:46:15;31.40;99.90
9167;DHT22;4618;48.818;9.088;2022-08-02T09:49:02;31.70;99.90
9167;DHT22;4618;48.818;9.088;2022-08-02T09:51:28;32.40;99.90
9167;DHT22;4618;48.818;9.088;2022-08-02T09:53:57;33.40;99.90
9167;DHT22;4618;48.818;9.088;2022-08-02T09:56:24;34.50;99.90
9167;DHT22;4618;48.818;9.088;2022-08-02T09:58:51;34.70;99.90
9167;DHT22;4618;48.818;9.088;2022-08-02T10:01:20;35.40;99.90
9167;DHT22;4618;48.818;9.088;2022-08-02T10:04:03;36.30;99.90
9167;DHT22;4618;48.818;9.088;2022-08-02T10:06:31;36.60;99.90
9167;DHT22;4618;48.818;9.088;2022-08-02T10:08:56;36.80;99.90
9167;DHT22;4618;48.818;9.088;2022-08-02T10:11:24;36.30;99.90
9167;DHT22;4618;48.818;9.088;2022-08-02T10:13:51;36.90;99.90
9167;DHT22;4618;48.818;9.088;2022-08-02T10:16:19;36.40;99.90
9167;DHT22;4618;48.818;9.088;2022-08-02T10:18:52;36.40;99.90
9167;DHT22;4618;48.818;9.088;2022-08-02T10:21:22;36.50;99.90
9167;DHT22;4618;48.818;9.088;2022-08-02T10:23:49;35.60;99.90
9167;DHT22;4618;48.818;9.088;2022-08-02T10:26:19;36.30;99.90
9167;DHT22;4618;48.818;9.088;2022-08-02T10:31:12;34.80;99.90
9167;DHT22;4618;48.818;9.088;2022-08-02T10:33:39;33.60;99.90
9167;DHT22;4618;48.818;9.088;2022-08-02T10:36:08;32.10;99.90
9167;DHT22;4618;48.818;9.088;2022-08-02T10:38:35;32.30;99.90
9167;DHT22;4618;48.818;9.088;2022-08-02T10:41:01;32.90;99.90
9167;DHT22;4618;48.818;9.088;2022-08-02T10:43:42;34.40;99.90
9167;DHT22;4618;48.818;9.088;2022-08-02T10:46:31;35.40;99.90
9167;DHT22;4618;48.818;9.088;2022-08-02T10:49:01;35.80;99.90
9167;DHT22;4618;48.818;9.088;2022-08-02T10:56:57;32.50;99.90
9167;DHT22;4618;48.818;9.088;2022-08-02T11:01:53;33.70;99.90
9167;DHT22;4618;48.818;9.088;2022-08-02T11:07:13;33.60;99.90
9167;DHT22;4618;48.818;9.088;2022-08-02T11:09:42;33.10;99.90
9167;DHT22;4618;48.818;9.088;2022-08-02T11:12:10;34.00;99.90
9167;DHT22;4618;48.818;9.088;2022-08-02T11:14:41;35.00;99.90
9167;DHT22;4618;48.818;9.088;2022-08-02T11:24:33;36.40;99.90
9167;DHT22;4618;48.818;9.088;2022-08-02T11:27:01;34.90;99.90
9167;DHT22;4618;48.818;9.088;2022-08-02T11:29:38;35.50;99.90
9167;DHT22;4618;48.818;9.088;2022-08-02T11:32:07;35.50;99.90
9167;DHT22;4618;48.818;9.088;2022-08-02T11:37:05;34.00;99.90
9167;DHT22;4618;48.818;9.088;2022-08-02T11:39:31;34.80;99.90
9167;DHT22;4618;48.818;9.088;2022-08-02T11:41:59;34.70;99.90
9167;DHT22;4618;48.818;9.088;2022-08-02T11:44:25;34.10;99.90
9167;DHT22;4618;48.818;9.088;2022-08-02T11:46:56;35.20;99.90
9167;DHT22;4618;48.818;9.088;2022-08-02T11:49:22;36.70;99.90
9167;DHT22;4618;48.818;9.088;2022-08-02T11:51:59;37.40;99.90
9167;DHT22;4618;48.818;9.088;2022-08-02T11:54:32;36.30;99.90
9167;DHT22;4618;48.818;9.088;2022-08-02T11:57:19;36.60;99.90
9167;DHT22;4618;48.818;9.088;2022-08-02T11:59:51;37.90;99.90
9167;DHT22;4618;48.818;9.088;2022-08-02T12:02:22;38.50;99.90
9167;DHT22;4618;48.818;9.088;2022-08-02T12:05:02;38.70;99.90
9167;DHT22;4618;48.818;9.088;2022-08-02T12:10:08;40.10;99.90
9167;DHT22;4618;48.818;9.088;2022-08-02T12:12:53;39.50;99.90
9167;DHT22;4618;48.818;9.088;2022-08-02T12:17:55;40.70;99.90
9167;DHT22;4618;48.818;9.088;2022-08-02T12:20:39;40.50;99.90
9167;DHT22;4618;48.818;9.088;2022-08-02T12:25:31;40.40;99.90
9167;DHT22;4618;48.818;9.088;2022-08-02T12:30:55;41.60;99.90
9167;DHT22;4618;48.818;9.088;2022-08-02T12:33:23;41.50;99.90
9167;DHT22;4618;48.818;9.088;2022-08-02T12:35:49;41.00;99.90
9167;DHT22;4618;48.818;9.088;2022-08-02T12:38:15;40.30;99.90
9167;DHT22;4618;48.818;9.088;2022-08-02T12:40:40;40.00;99.90
9167;DHT22;4618;48.818;9.088;2022-08-02T12:43:15;39.10;99.90
9167;DHT22;4618;48.818;9.088;2022-08-02T12:45:47;38.80;99.90
9167;DHT22;4618;48.818;9.088;2022-08-02T12:48:14;38.30;99.90
9167;DHT22;4618;48.818;9.088;2022-08-02T12:50:40;36.70;99.90
9167;DHT22;4618;48.818;9.088;2022-08-02T12:55:36;34.10;99.90
9167;DHT22;4618;48.818;9.088;2022-08-02T12:58:10;33.50;99.90
9167;DHT22;4618;48.818;9.088;2022-08-02T13:00:37;33.20;99.90
9167;DHT22;4618;48.818;9.088;2022-08-02T13:03:03;33.80;99.90
9167;DHT22;4618;48.818;9.088;2022-08-02T13:05:30;34.30;99.90
9167;DHT22;4618;48.818;9.088;2022-08-02T13:07:59;33.70;99.90
9167;DHT22;4618;48.818;9.088;2022-08-02T13:10:25;33.20;99.90
9167;DHT22;4618;48.818;9.088;2022-08-02T13:12:50;34.80;99.90
9167;DHT22;4618;48.818;9.088;2022-08-02T13:15:17;37.10;99.90
9167;DHT22;4618;48.818;9.088;2022-08-02T13:17:43;38.50;99.90
9167;DHT22;4618;48.818;9.088;2022-08-02T13:20:09;40.00;99.90
9167;DHT22;4618;48.818;9.088;2022-08-02T13:22:36;40.60;99.90
9167;DHT22;4618;48.818;9.088;2022-08-02T13:25:03;40.80;99.90
9167;DHT22;4618;48.818;9.088;2022-08-02T13:27:29;40.30;99.90
9167;DHT22;4618;48.818;9.088;2022-08-02T13:29:56;40.10;99.90
9167;DHT22;4618;48.818;9.088;2022-08-02T13:32:22;40.50;99.90
9167;DHT22;4618;48.818;9.088;2022-08-02T13:34:48;40.80;99.90
9167;DHT22;4618;48.818;9.088;2022-08-02T13:37:14;40.50;99.90
9167;DHT22;4618;48.818;9.088;2022-08-02T13:39:39;40.20;99.90
9167;DHT22;4618;48.818;9.088;2022-08-02T13:42:05;40.00;99.90
9167;DHT22;4618;48.818;9.088;2022-08-02T13:44:31;38.00;99.90
9167;DHT22;4618;48.818;9.088;2022-08-02T13:46:57;38.20;99.90
9167;DHT22;4618;48.818;9.088;2022-08-02T13:49:22;38.80;99.90
9167;DHT22;4618;48.818;9.088;2022-08-02T13:51:48;38.40;99.90
9167;DHT22;4618;48.818;9.088;2022-08-02T13:54:15;38.60;99.90
9167;DHT22;4618;48.818;9.088;2022-08-02T13:56:41;38.90;99.90
9167;DHT22;4618;48.818;9.088;2022-08-02T13:59:06;38.80;99.90
9167;DHT22;4618;48.818;9.088;2022-08-02T14:01:32;39.80;99.90
9167;DHT22;4618;48.818;9.088;2022-08-02T14:03:58;39.80;99.90
9167;DHT22;4618;48.818;9.088;2022-08-02T14:06:24;40.00;99.90
9167;DHT22;4618;48.818;9.088;2022-08-02T14:08:50;39.70;99.90
9167;DHT22;4618;48.818;9.088;2022-08-02T14:11:16;39.70;99.90
9167;DHT22;4618;48.818;9.088;2022-08-02T14:13:42;39.10;99.90
9167;DHT22;4618;48.818;9.088;2022-08-02T14:16:07;37.50;99.90
9167;DHT22;4618;48.818;9.088;2022-08-02T14:18:33;36.90;99.90
9167;DHT22;4618;48.818;9.088;2022-08-02T14:20:59;37.10;99.90
9167;DHT22;4618;48.818;9.088;2022-08-02T14:23:25;37.80;99.90
9167;DHT22;4618;48.818;9.088;2022-08-02T14:25:51;39.30;99.90
9167;DHT22;4618;48.818;9.088;2022-08-02T14:28:17;39.70;99.90
9167;DHT22;4618;48.818;9.088;2022-08-02T14:30:42;39.80;99.90
9167;DHT22;4618;48.818;9.088;2022-08-02T14:33:08;40.70;99.90
9167;DHT22;4618;48.818;9.088;2022-08-02T14:35:34;41.00;99.90
9167;DHT22;4618;48.818;9.088;2022-08-02T14:38:02;41.20;99.90
9167;DHT22;4618;48.818;9.088;2022-08-02T14:40:27;41.20;99.90
9167;DHT22;4618;48.818;9.088;2022-08-02T14:42:53;40.40;99.90
9167;DHT22;4618;48.818;9.088;2022-08-02T14:45:19;40.60;99.90
9167;DHT22;4618;48.818;9.088;2022-08-02T14:47:47;40.50;99.90
9167;DHT22;4618;48.818;9.088;2022-08-02T14:50:14;41.10;99.90
9167;DHT22;4618;48.818;9.088;2022-08-02T14:52:39;41.00;99.90
9167;DHT22;4618;48.818;9.088;2022-08-02T14:55:05;40.60;99.90
9167;DHT22;4618;48.818;9.088;2022-08-02T14:57:31;41.00;99.90
9167;DHT22;4618;48.818;9.088;2022-08-02T14:59:57;40.50;99.90
9167;DHT22;4618;48.818;9.088;2022-08-02T15:02:26;39.80;99.90
9167;DHT22;4618;48.818;9.088;2022-08-02T15:04:52;39.20;99.90
9167;DHT22;4618;48.818;9.088;2022-08-02T15:07:17;39.00;99.90
9167;DHT22;4618;48.818;9.088;2022-08-02T15:09:43;39.40;99.90
9167;DHT22;4618;48.818;9.088;2022-08-02T15:12:10;39.50;99.90
9167;DHT22;4618;48.818;9.088;2022-08-02T15:14:36;38.80;99.90
9167;DHT22;4618;48.818;9.088;2022-08-02T15:17:02;38.50;99.90
9167;DHT22;4618;48.818;9.088;2022-08-02T15:19:29;38.70;99.90
9167;DHT22;4618;48.818;9.088;2022-08-02T15:21:55;38.80;99.90
9167;DHT22;4618;48.818;9.088;2022-08-02T15:24:21;38.90;99.90
9167;DHT22;4618;48.818;9.088;2022-08-02T15:26:47;39.30;99.90
9167;DHT22;4618;48.818;9.088;2022-08-02T15:29:14;38.80;99.90
9167;DHT22;4618;48.818;9.088;2022-08-02T15:31:40;37.30;99.90
9167;DHT22;4618;48.818;9.088;2022-08-02T15:36:31;34.90;99.90
9167;DHT22;4618;48.818;9.088;2022-08-02T15:38:57;35.20;99.90
9167;DHT22;4618;48.818;9.088;2022-08-02T15:41:23;35.80;99.90
9167;DHT22;4618;48.818;9.088;2022-08-02T15:43:48;36.50;99.90
9167;DHT22;4618;48.818;9.088;2022-08-02T15:46:14;37.30;99.90
9167;DHT22;4618;48.818;9.088;2022-08-02T15:48:40;37.70;99.90
9167;DHT22;4618;48.818;9.088;2022-08-02T15:51:05;37.70;99.90
9167;DHT22;4618;48.818;9.088;2022-08-02T15:53:31;38.00;99.90
9167;DHT22;4618;48.818;9.088;2022-08-02T15:55:57;38.50;99.90
9167;DHT22;4618;48.818;9.088;2022-08-02T15:58:22;38.90;99.90
9167;DHT22;4618;48.818;9.088;2022-08-02T16:00:48;38.80;99.90
9167;DHT22;4618;48.818;9.088;2022-08-02T16:03:14;38.30;99.90
9167;DHT22;4618;48.818;9.088;2022-08-02T16:05:39;38.40;99.90
9167;DHT22;4618;48.818;9.088;2022-08-02T16:08:05;38.20;99.90
9167;DHT22;4618;48.818;9.088;2022-08-02T16:10:31;38.30;99.90
9167;DHT22;4618;48.818;9.088;2022-08-02T16:12:57;38.00;99.90
9167;DHT22;4618;48.818;9.088;2022-08-02T16:15:43;37.90;99.90
9167;DHT22;4618;48.818;9.088;2022-08-02T16:18:08;37.40;99.90
9167;DHT22;4618;48.818;9.088;2022-08-02T16:23:00;37.00;99.90
9167;DHT22;4618;48.818;9.088;2022-08-02T16:25:25;37.10;99.90
9167;DHT22;4618;48.818;9.088;2022-08-02T16:27:51;37.10;99.90
9167;DHT22;4618;48.818;9.088;2022-08-02T16:30:17;36.70;99.90
9167;DHT22;4618;48.818;9.088;2022-08-02T16:32:42;36.60;99.90
9167;DHT22;4618;48.818;9.088;2022-08-02T16:35:08;36.50;99.90
9167;DHT22;4618;48.818;9.088;2022-08-02T16:37:33;36.60;99.90
9167;DHT22;4618;48.818;9.088;2022-08-02T16:39:59;36.90;99.90
9167;DHT22;4618;48.818;9.088;2022-08-02T16:42:24;35.90;99.90
9167;DHT22;4618;48.818;9.088;2022-08-02T16:44:50;35.90;99.90
9167;DHT22;4618;48.818;9.088;2022-08-02T16:47:16;36.20;99.90
9167;DHT22;4618;48.818;9.088;2022-08-02T16:49:41;36.50;99.90
9167;DHT22;4618;48.818;9.088;2022-08-02T16:52:07;36.00;99.90
9167;DHT22;4618;48.818;9.088;2022-08-02T16:54:32;35.90;99.90
9167;DHT22;4618;48.818;9.088;2022-08-02T16:56:58;35.90;99.90
9167;DHT22;4618;48.818;9.088;2022-08-02T16:59:23;35.60;99.90
9167;DHT22;4618;48.818;9.088;2022-08-02T17:01:49;35.90;99.90
9167;DHT22;4618;48.818;9.088;2022-08-02T17:04:14;35.70;99.90
9167;DHT22;4618;48.818;9.088;2022-08-02T17:06:40;35.30;99.90
9167;DHT22;4618;48.818;9.088;2022-08-02T17:09:05;35.40;99.90
9167;DHT22;4618;48.818;9.088;2022-08-02T17:11:31;36.00;99.90
9167;DHT22;4618;48.818;9.088;2022-08-02T17:13:57;35.30;99.90
9167;DHT22;4618;48.818;9.088;2022-08-02T17:16:22;35.70;99.90
9167;DHT22;4618;48.818;9.088;2022-08-02T17:18:48;34.60;99.90